Información del aeropuerto ENAT

Información de pista
Pista 11 Longitud 7165 ft Anchura 131 ft
Elevación 8 ft Umbral 674 ft Rumbo 121
Pista 29 Longitud 7165 ft Anchura 131 ft
Elevación 7 ft Umbral 418 ft Rumbo 301
Frecuencias del aeropuerto
Tipo ATIS Nombre ATIS Frecuencia 118.175 MHZ
Tipo TWR Nombre TWR Frecuencia 118.1 MHZ
Radioayudas del aeropuerto
Tipo NDB Nombre Alta Frecuencia 358 KHZ
Tipo VOR-DME Nombre Alta Frecuencia 117400 KHZ
Información meteorológica del aeropuerto y NOTAM
ADDS - METARS form results

(0103 UTC 06 May 2021)
Data provider http://aviationweather.gov/metar/data/
 
METAR text: ENAT 060050Z AUTO 20004KT 160V230 9999 FEW037/// OVC046/// M02/M07 Q1010 RMK WIND 700FT 19006KT
Conditions at: ENAT (ALTA AIRPORT , NO) observed 0050 UTC 06 May 2021
Temperature: -2.0°C (28°F)
Dewpoint: -7.0°C (19°F) [RH = 69%]
Pressure (altimeter): 29.82 inches Hg (1010.0 mb)
Winds: from the SSW (200 degrees) at 5 MPH (4 knots; 2.1 m/s)
Visibility: 6 or more miles (10+ km)
Ceiling: 4600 feet AGL
Clouds: few clouds at 3700 feet AGL
overcast cloud deck at 4600 feet AGL
Weather: no significant weather observed at this time

METAR text: ENAT 060020Z AUTO 21005KT 9999 FEW031/// OVC047/// M02/M07 Q1010 RMK WIND 700FT 17006KT
Conditions at: ENAT (ALTA AIRPORT , NO) observed 0020 UTC 06 May 2021
Temperature: -2.0°C (28°F)
Dewpoint: -7.0°C (19°F) [RH = 69%]
Pressure (altimeter): 29.82 inches Hg (1010.0 mb)
Winds: from the SSW (210 degrees) at 6 MPH (5 knots; 2.6 m/s)
Visibility: 6 or more miles (10+ km)
Ceiling: 4700 feet AGL
Clouds: few clouds at 3100 feet AGL
overcast cloud deck at 4700 feet AGL
Weather: no significant weather observed at this time

Forecast for: ENAT (ALTA AIRPORT , NO)
Text: TAF ENAT 051700Z 0518/0521 11008KT 9999 SCT045
Forecast period: 1800 to 2100 UTC 05 May 2021
Forecast type: FROM: standard forecast or significant change
Winds: from the ESE (110 degrees) at 9 MPH (8 knots; 4.1 m/s)
Visibility: 6 or more miles (10+ km)
Ceiling: at least 12,000 feet AGL
Clouds: scattered clouds at 4500 feet AGL
Weather: no significant weather forecast for this period